sensor_id;sensor_type;location;lat;lon;timestamp;P1;durP1;ratioP1;P2;durP2;ratioP2
28796;SDS011;24974;54.444;18.560;2022-07-29T03:45:18;6.72;;;4.40;;
28796;SDS011;24974;54.444;18.560;2022-07-29T03:47:56;7.18;;;4.20;;
28796;SDS011;24974;54.444;18.560;2022-07-29T03:50:31;5.97;;;5.03;;
28796;SDS011;24974;54.444;18.560;2022-07-29T03:53:05;9.23;;;4.28;;
28796;SDS011;24974;54.444;18.560;2022-07-29T03:55:37;8.85;;;4.72;;
28796;SDS011;24974;54.444;18.560;2022-07-29T03:58:12;7.28;;;4.60;;
28796;SDS011;24974;54.444;18.560;2022-07-29T04:00:45;9.85;;;4.57;;
28796;SDS011;24974;54.444;18.560;2022-07-29T04:03:17;4.72;;;3.85;;
28796;SDS011;24974;54.444;18.560;2022-07-29T04:08:38;8.43;;;4.13;;
28796;SDS011;24974;54.444;18.560;2022-07-29T04:11:09;8.77;;;3.78;;
28796;SDS011;24974;54.444;18.560;2022-07-29T04:13:40;7.65;;;4.15;;
28796;SDS011;24974;54.444;18.560;2022-07-29T04:16:11;7.05;;;3.80;;
28796;SDS011;24974;54.444;18.560;2022-07-29T04:18:42;9.60;;;3.97;;
28796;SDS011;24974;54.444;18.560;2022-07-29T04:21:13;6.20;;;3.40;;
28796;SDS011;24974;54.444;18.560;2022-07-29T04:23:44;6.35;;;3.13;;
28796;SDS011;24974;54.444;18.560;2022-07-29T04:26:19;11.73;;;3.65;;
28796;SDS011;24974;54.444;18.560;2022-07-29T04:28:50;16.75;;;4.47;;
28796;SDS011;24974;54.444;18.560;2022-07-29T04:31:21;10.80;;;3.72;;
28796;SDS011;24974;54.444;18.560;2022-07-29T04:33:52;8.00;;;3.78;;
28796;SDS011;24974;54.444;18.560;2022-07-29T04:36:23;10.90;;;3.65;;
28796;SDS011;24974;54.444;18.560;2022-07-29T04:38:54;9.57;;;4.18;;
28796;SDS011;24974;54.444;18.560;2022-07-29T04:41:25;7.35;;;3.40;;
28796;SDS011;24974;54.444;18.560;2022-07-29T04:43:56;10.23;;;3.92;;
28796;SDS011;24974;54.444;18.560;2022-07-29T04:46:27;12.98;;;4.47;;
28796;SDS011;24974;54.444;18.560;2022-07-29T04:48:58;10.95;;;5.05;;
28796;SDS011;24974;54.444;18.560;2022-07-29T04:51:29;11.88;;;4.32;;
28796;SDS011;24974;54.444;18.560;2022-07-29T04:54:00;10.65;;;4.38;;
28796;SDS011;24974;54.444;18.560;2022-07-29T04:56:31;9.70;;;4.65;;
28796;SDS011;24974;54.444;18.560;2022-07-29T04:59:02;9.15;;;4.35;;
28796;SDS011;24974;54.444;18.560;2022-07-29T05:01:33;9.32;;;5.10;;
28796;SDS011;24974;54.444;18.560;2022-07-29T05:04:03;6.47;;;4.00;;
28796;SDS011;24974;54.444;18.560;2022-07-29T05:06:34;9.88;;;4.70;;
28796;SDS011;24974;54.444;18.560;2022-07-29T05:09:05;11.00;;;4.43;;
28796;SDS011;24974;54.444;18.560;2022-07-29T05:11:36;8.02;;;4.13;;
28796;SDS011;24974;54.444;18.560;2022-07-29T05:14:07;8.02;;;4.05;;
28796;SDS011;24974;54.444;18.560;2022-07-29T05:16:38;10.88;;;4.10;;
28796;SDS011;24974;54.444;18.560;2022-07-29T05:19:12;6.35;;;3.42;;
28796;SDS011;24974;54.444;18.560;2022-07-29T05:21:44;6.53;;;3.45;;
28796;SDS011;24974;54.444;18.560;2022-07-29T05:24:15;6.72;;;3.15;;
28796;SDS011;24974;54.444;18.560;2022-07-29T05:26:46;10.68;;;3.70;;
28796;SDS011;24974;54.444;18.560;2022-07-29T05:29:17;6.85;;;3.25;;
28796;SDS011;24974;54.444;18.560;2022-07-29T05:31:48;7.38;;;3.30;;
28796;SDS011;24974;54.444;18.560;2022-07-29T05:34:19;5.18;;;2.90;;
28796;SDS011;24974;54.444;18.560;2022-07-29T05:36:50;9.18;;;3.03;;
28796;SDS011;24974;54.444;18.560;2022-07-29T05:39:21;10.20;;;2.55;;
28796;SDS011;24974;54.444;18.560;2022-07-29T05:41:53;7.10;;;2.75;;
28796;SDS011;24974;54.444;18.560;2022-07-29T05:44:24;7.45;;;2.58;;
28796;SDS011;24974;54.444;18.560;2022-07-29T05:46:55;6.82;;;2.50;;
28796;SDS011;24974;54.444;18.560;2022-07-29T05:49:25;6.00;;;2.60;;
28796;SDS011;24974;54.444;18.560;2022-07-29T05:51:56;4.55;;;2.25;;
28796;SDS011;24974;54.444;18.560;2022-07-29T05:54:28;7.97;;;1.85;;
28796;SDS011;24974;54.444;18.560;2022-07-29T05:56:59;5.35;;;2.20;;
28796;SDS011;24974;54.444;18.560;2022-07-29T05:59:30;4.57;;;2.10;;
28796;SDS011;24974;54.444;18.560;2022-07-29T06:02:01;6.05;;;2.22;;
28796;SDS011;24974;54.444;18.560;2022-07-29T06:04:32;9.43;;;2.75;;
28796;SDS011;24974;54.444;18.560;2022-07-29T06:07:03;10.60;;;2.53;;
28796;SDS011;24974;54.444;18.560;2022-07-29T06:09:34;5.00;;;1.80;;
28796;SDS011;24974;54.444;18.560;2022-07-29T06:12:05;3.83;;;1.80;;
28796;SDS011;24974;54.444;18.560;2022-07-29T06:14:36;4.93;;;1.73;;
28796;SDS011;24974;54.444;18.560;2022-07-29T06:17:08;1.75;;;1.30;;
28796;SDS011;24974;54.444;18.560;2022-07-29T06:19:41;6.00;;;1.50;;
28796;SDS011;24974;54.444;18.560;2022-07-29T06:22:14;5.05;;;1.50;;
28796;SDS011;24974;54.444;18.560;2022-07-29T06:24:46;4.15;;;1.33;;
28796;SDS011;24974;54.444;18.560;2022-07-29T06:27:17;1.20;;;1.10;;
28796;SDS011;24974;54.444;18.560;2022-07-29T06:29:48;2.60;;;1.70;;
28796;SDS011;24974;54.444;18.560;2022-07-29T06:32:18;3.67;;;1.55;;
28796;SDS011;24974;54.444;18.560;2022-07-29T06:34:49;9.45;;;1.50;;
28796;SDS011;24974;54.444;18.560;2022-07-29T06:37:20;3.63;;;1.25;;
28796;SDS011;24974;54.444;18.560;2022-07-29T06:39:52;3.22;;;1.42;;
28796;SDS011;24974;54.444;18.560;2022-07-29T06:42:43;5.25;;;1.58;;
28796;SDS011;24974;54.444;18.560;2022-07-29T06:45:15;2.58;;;1.30;;
28796;SDS011;24974;54.444;18.560;2022-07-29T06:47:46;6.38;;;1.52;;
28796;SDS011;24974;54.444;18.560;2022-07-29T06:50:17;5.40;;;1.80;;
28796;SDS011;24974;54.444;18.560;2022-07-29T06:52:48;7.50;;;1.40;;
28796;SDS011;24974;54.444;18.560;2022-07-29T06:55:19;3.20;;;1.20;;
28796;SDS011;24974;54.444;18.560;2022-07-29T06:57:50;5.35;;;1.60;;
28796;SDS011;24974;54.444;18.560;2022-07-29T07:00:21;3.45;;;1.50;;
28796;SDS011;24974;54.444;18.560;2022-07-29T07:02:52;6.65;;;2.08;;
28796;SDS011;24974;54.444;18.560;2022-07-29T07:05:23;7.95;;;2.00;;
28796;SDS011;24974;54.444;18.560;2022-07-29T07:07:54;8.30;;;2.00;;
28796;SDS011;24974;54.444;18.560;2022-07-29T07:10:25;5.07;;;2.00;;
28796;SDS011;24974;54.444;18.560;2022-07-29T07:12:56;7.95;;;2.03;;
28796;SDS011;24974;54.444;18.560;2022-07-29T07:15:27;6.93;;;2.20;;
28796;SDS011;24974;54.444;18.560;2022-07-29T07:17:59;3.72;;;1.90;;
28796;SDS011;24974;54.444;18.560;2022-07-29T07:20:30;4.47;;;1.33;;
28796;SDS011;24974;54.444;18.560;2022-07-29T07:23:01;2.15;;;1.17;;
28796;SDS011;24974;54.444;18.560;2022-07-29T07:25:32;5.22;;;1.60;;
28796;SDS011;24974;54.444;18.560;2022-07-29T07:28:03;4.13;;;1.30;;
28796;SDS011;24974;54.444;18.560;2022-07-29T07:30:34;3.47;;;1.17;;
28796;SDS011;24974;54.444;18.560;2022-07-29T07:33:05;3.83;;;1.00;;
28796;SDS011;24974;54.444;18.560;2022-07-29T07:35:36;5.78;;;1.83;;
28796;SDS011;24974;54.444;18.560;2022-07-29T07:38:07;1.65;;;1.20;;
28796;SDS011;24974;54.444;18.560;2022-07-29T07:40:38;2.47;;;1.48;;
28796;SDS011;24974;54.444;18.560;2022-07-29T07:43:09;2.70;;;1.10;;
28796;SDS011;24974;54.444;18.560;2022-07-29T07:45:40;3.90;;;1.80;;
28796;SDS011;24974;54.444;18.560;2022-07-29T07:48:11;2.58;;;1.23;;
28796;SDS011;24974;54.444;18.560;2022-07-29T07:50:42;2.90;;;1.33;;
28796;SDS011;24974;54.444;18.560;2022-07-29T07:53:14;3.95;;;1.40;;
28796;SDS011;24974;54.444;18.560;2022-07-29T07:55:44;2.05;;;1.00;;
28796;SDS011;24974;54.444;18.560;2022-07-29T07:58:16;3.95;;;1.20;;
28796;SDS011;24974;54.444;18.560;2022-07-29T08:00:47;3.05;;;1.00;;
28796;SDS011;24974;54.444;18.560;2022-07-29T08:03:18;3.30;;;1.00;;
28796;SDS011;24974;54.444;18.560;2022-07-29T08:05:49;2.20;;;1.45;;
28796;SDS011;24974;54.444;18.560;2022-07-29T08:08:22;1.67;;;1.17;;
28796;SDS011;24974;54.444;18.560;2022-07-29T08:10:52;2.30;;;1.00;;
28796;SDS011;24974;54.444;18.560;2022-07-29T08:13:25;2.25;;;1.00;;
28796;SDS011;24974;54.444;18.560;2022-07-29T08:16:00;3.50;;;0.98;;
28796;SDS011;24974;54.444;18.560;2022-07-29T08:18:32;2.83;;;0.77;;
28796;SDS011;24974;54.444;18.560;2022-07-29T08:21:03;2.33;;;1.20;;
28796;SDS011;24974;54.444;18.560;2022-07-29T08:23:34;5.50;;;2.85;;
28796;SDS011;24974;54.444;18.560;2022-07-29T08:26:09;7.82;;;1.40;;
28796;SDS011;24974;54.444;18.560;2022-07-29T08:28:43;2.35;;;1.50;;
28796;SDS011;24974;54.444;18.560;2022-07-29T08:31:16;4.80;;;1.75;;
28796;SDS011;24974;54.444;18.560;2022-07-29T08:33:47;2.17;;;1.13;;
28796;SDS011;24974;54.444;18.560;2022-07-29T08:36:18;3.28;;;1.48;;
28796;SDS011;24974;54.444;18.560;2022-07-29T08:38:51;7.10;;;2.47;;
28796;SDS011;24974;54.444;18.560;2022-07-29T08:41:22;3.85;;;1.02;;
28796;SDS011;24974;54.444;18.560;2022-07-29T08:43:53;4.00;;;1.08;;
28796;SDS011;24974;54.444;18.560;2022-07-29T08:46:25;3.92;;;1.20;;
28796;SDS011;24974;54.444;18.560;2022-07-29T08:48:55;4.40;;;1.15;;
28796;SDS011;24974;54.444;18.560;2022-07-29T08:51:26;3.10;;;1.00;;
28796;SDS011;24974;54.444;18.560;2022-07-29T08:53:58;2.78;;;1.10;;
28796;SDS011;24974;54.444;18.560;2022-07-29T08:56:30;3.15;;;1.40;;
28796;SDS011;24974;54.444;18.560;2022-07-29T08:59:04;2.88;;;1.00;;
28796;SDS011;24974;54.444;18.560;2022-07-29T09:01:37;2.67;;;1.10;;
28796;SDS011;24974;54.444;18.560;2022-07-29T09:04:10;3.08;;;1.20;;
28796;SDS011;24974;54.444;18.560;2022-07-29T09:06:43;2.63;;;1.13;;
28796;SDS011;24974;54.444;18.560;2022-07-29T09:09:16;2.30;;;1.00;;
28796;SDS011;24974;54.444;18.560;2022-07-29T09:11:47;2.90;;;1.00;;
28796;SDS011;24974;54.444;18.560;2022-07-29T09:14:18;1.67;;;1.00;;
28796;SDS011;24974;54.444;18.560;2022-07-29T09:16:53;2.25;;;1.30;;
28796;SDS011;24974;54.444;18.560;2022-07-29T09:19:27;3.85;;;1.38;;
28796;SDS011;24974;54.444;18.560;2022-07-29T09:22:04;2.17;;;1.00;;
28796;SDS011;24974;54.444;18.560;2022-07-29T09:27:18;2.95;;;0.95;;
28796;SDS011;24974;54.444;18.560;2022-07-29T09:30:00;1.13;;;0.75;;
28796;SDS011;24974;54.444;18.560;2022-07-29T09:32:34;3.42;;;1.05;;
28796;SDS011;24974;54.444;18.560;2022-07-29T09:35:26;1.50;;;0.95;;
28796;SDS011;24974;54.444;18.560;2022-07-29T09:38:00;3.60;;;1.70;;
28796;SDS011;24974;54.444;18.560;2022-07-29T09:40:44;1.85;;;0.90;;
28796;SDS011;24974;54.444;18.560;2022-07-29T09:43:27;2.08;;;1.00;;
28796;SDS011;24974;54.444;18.560;2022-07-29T09:46:11;2.92;;;1.00;;
28796;SDS011;24974;54.444;18.560;2022-07-29T09:48:43;3.78;;;1.00;;
28796;SDS011;24974;54.444;18.560;2022-07-29T09:51:17;3.88;;;1.00;;
28796;SDS011;24974;54.444;18.560;2022-07-29T09:53:49;2.67;;;0.90;;
28796;SDS011;24974;54.444;18.560;2022-07-29T09:56:28;1.48;;;0.80;;
28796;SDS011;24974;54.444;18.560;2022-07-29T09:59:13;2.63;;;0.90;;
28796;SDS011;24974;54.444;18.560;2022-07-29T10:01:44;4.90;;;1.23;;
28796;SDS011;24974;54.444;18.560;2022-07-29T10:04:15;1.20;;;0.80;;
28796;SDS011;24974;54.444;18.560;2022-07-29T10:06:57;1.73;;;1.00;;
28796;SDS011;24974;54.444;18.560;2022-07-29T10:09:30;1.67;;;0.80;;
28796;SDS011;24974;54.444;18.560;2022-07-29T10:12:13;3.78;;;0.85;;
28796;SDS011;24974;54.444;18.560;2022-07-29T10:14:44;3.72;;;1.40;;
28796;SDS011;24974;54.444;18.560;2022-07-29T10:17:16;1.27;;;0.73;;
28796;SDS011;24974;54.444;18.560;2022-07-29T10:19:48;1.63;;;1.00;;
28796;SDS011;24974;54.444;18.560;2022-07-29T10:22:20;1.58;;;0.80;;
28796;SDS011;24974;54.444;18.560;2022-07-29T10:24:51;7.45;;;1.00;;
28796;SDS011;24974;54.444;18.560;2022-07-29T10:27:22;6.53;;;1.00;;
28796;SDS011;24974;54.444;18.560;2022-07-29T10:29:53;1.30;;;0.70;;
28796;SDS011;24974;54.444;18.560;2022-07-29T10:46:45;1.95;;;0.80;;
28796;SDS011;24974;54.444;18.560;2022-07-29T10:49:17;2.13;;;0.75;;
28796;SDS011;24974;54.444;18.560;2022-07-29T10:52:06;1.48;;;0.70;;
28796;SDS011;24974;54.444;18.560;2022-07-29T10:54:40;3.67;;;0.70;;
28796;SDS011;24974;54.444;18.560;2022-07-29T11:05:02;2.13;;;0.60;;
28796;SDS011;24974;54.444;18.560;2022-07-29T11:07:36;1.42;;;0.52;;
28796;SDS011;24974;54.444;18.560;2022-07-29T11:15:18;1.20;;;0.60;;
28796;SDS011;24974;54.444;18.560;2022-07-29T11:23:34;2.38;;;1.10;;
28796;SDS011;24974;54.444;18.560;2022-07-29T11:31:37;3.33;;;0.68;;
28796;SDS011;24974;54.444;18.560;2022-07-29T11:34:32;1.05;;;0.68;;
28796;SDS011;24974;54.444;18.560;2022-07-29T11:39:37;0.93;;;0.60;;
28796;SDS011;24974;54.444;18.560;2022-07-29T11:44:56;0.98;;;0.60;;
28796;SDS011;24974;54.444;18.560;2022-07-29T11:50:17;2.60;;;0.98;;
28796;SDS011;24974;54.444;18.560;2022-07-29T11:52:57;2.45;;;1.80;;
28796;SDS011;24974;54.444;18.560;2022-07-29T11:55:28;1.52;;;1.02;;
28796;SDS011;24974;54.444;18.560;2022-07-29T11:58:01;1.17;;;0.80;;
28796;SDS011;24974;54.444;18.560;2022-07-29T12:00:36;1.23;;;1.00;;
28796;SDS011;24974;54.444;18.560;2022-07-29T12:03:10;0.70;;;0.68;;
28796;SDS011;24974;54.444;18.560;2022-07-29T12:05:42;1.65;;;0.98;;
28796;SDS011;24974;54.444;18.560;2022-07-29T12:08:19;1.05;;;0.70;;
28796;SDS011;24974;54.444;18.560;2022-07-29T12:10:52;3.08;;;0.88;;
28796;SDS011;24974;54.444;18.560;2022-07-29T12:13:23;1.88;;;0.80;;
28796;SDS011;24974;54.444;18.560;2022-07-29T12:15:55;1.20;;;0.80;;
28796;SDS011;24974;54.444;18.560;2022-07-29T12:18:28;6.57;;;0.70;;
28796;SDS011;24974;54.444;18.560;2022-07-29T12:20:59;1.98;;;0.68;;
28796;SDS011;24974;54.444;18.560;2022-07-29T12:23:34;0.63;;;0.60;;
28796;SDS011;24974;54.444;18.560;2022-07-29T12:26:05;1.23;;;0.65;;
28796;SDS011;24974;54.444;18.560;2022-07-29T12:28:37;2.20;;;1.00;;
28796;SDS011;24974;54.444;18.560;2022-07-29T12:31:14;2.80;;;1.40;;
28796;SDS011;24974;54.444;18.560;2022-07-29T12:33:51;1.05;;;0.70;;
28796;SDS011;24974;54.444;18.560;2022-07-29T12:36:24;1.58;;;0.75;;
28796;SDS011;24974;54.444;18.560;2022-07-29T12:38:55;5.68;;;0.90;;
28796;SDS011;24974;54.444;18.560;2022-07-29T12:41:27;1.30;;;0.85;;
28796;SDS011;24974;54.444;18.560;2022-07-29T12:43:59;2.47;;;0.82;;
28796;SDS011;24974;54.444;18.560;2022-07-29T12:46:30;0.90;;;0.80;;
28796;SDS011;24974;54.444;18.560;2022-07-29T12:49:01;1.20;;;0.80;;
28796;SDS011;24974;54.444;18.560;2022-07-29T12:51:34;2.42;;;0.80;;
28796;SDS011;24974;54.444;18.560;2022-07-29T12:56:42;4.80;;;1.48;;
28796;SDS011;24974;54.444;18.560;2022-07-29T12:59:21;0.80;;;0.70;;
28796;SDS011;24974;54.444;18.560;2022-07-29T13:01:53;3.17;;;0.60;;
28796;SDS011;24974;54.444;18.560;2022-07-29T13:04:27;1.45;;;0.60;;
28796;SDS011;24974;54.444;18.560;2022-07-29T13:07:05;2.13;;;0.88;;
28796;SDS011;24974;54.444;18.560;2022-07-29T13:09:38;0.70;;;0.60;;
28796;SDS011;24974;54.444;18.560;2022-07-29T13:12:11;2.17;;;0.88;;
28796;SDS011;24974;54.444;18.560;2022-07-29T13:14:44;1.85;;;0.85;;
28796;SDS011;24974;54.444;18.560;2022-07-29T13:22:42;3.95;;;2.42;;
28796;SDS011;24974;54.444;18.560;2022-07-29T13:25:30;2.78;;;1.45;;
28796;SDS011;24974;54.444;18.560;2022-07-29T13:28:02;3.00;;;1.02;;
28796;SDS011;24974;54.444;18.560;2022-07-29T13:30:33;2.65;;;1.02;;
28796;SDS011;24974;54.444;18.560;2022-07-29T13:33:04;1.63;;;1.23;;
28796;SDS011;24974;54.444;18.560;2022-07-29T13:35:35;2.88;;;1.30;;
28796;SDS011;24974;54.444;18.560;2022-07-29T13:38:06;1.48;;;0.80;;
28796;SDS011;24974;54.444;18.560;2022-07-29T13:40:37;2.42;;;1.00;;
28796;SDS011;24974;54.444;18.560;2022-07-29T13:43:08;4.13;;;1.00;;
28796;SDS011;24974;54.444;18.560;2022-07-29T13:45:40;1.83;;;0.70;;
28796;SDS011;24974;54.444;18.560;2022-07-29T13:48:11;1.95;;;0.80;;
28796;SDS011;24974;54.444;18.560;2022-07-29T13:50:42;3.55;;;0.80;;
28796;SDS011;24974;54.444;18.560;2022-07-29T13:53:13;0.82;;;0.70;;
28796;SDS011;24974;54.444;18.560;2022-07-29T13:55:44;2.60;;;0.80;;
28796;SDS011;24974;54.444;18.560;2022-07-29T13:58:15;2.08;;;0.70;;
28796;SDS011;24974;54.444;18.560;2022-07-29T14:00:46;5.03;;;0.90;;
28796;SDS011;24974;54.444;18.560;2022-07-29T14:03:17;2.33;;;0.90;;
28796;SDS011;24974;54.444;18.560;2022-07-29T14:05:48;1.50;;;0.80;;
28796;SDS011;24974;54.444;18.560;2022-07-29T14:08:19;1.02;;;0.70;;
28796;SDS011;24974;54.444;18.560;2022-07-29T14:10:50;2.45;;;0.90;;
28796;SDS011;24974;54.444;18.560;2022-07-29T14:13:21;2.90;;;0.82;;
28796;SDS011;24974;54.444;18.560;2022-07-29T14:15:52;2.25;;;0.77;;
28796;SDS011;24974;54.444;18.560;2022-07-29T14:18:23;3.28;;;1.00;;
28796;SDS011;24974;54.444;18.560;2022-07-29T14:20:54;2.67;;;1.00;;
28796;SDS011;24974;54.444;18.560;2022-07-29T14:23:25;1.48;;;0.77;;
28796;SDS011;24974;54.444;18.560;2022-07-29T14:25:56;1.55;;;1.00;;
28796;SDS011;24974;54.444;18.560;2022-07-29T14:28:27;2.33;;;0.65;;
28796;SDS011;24974;54.444;18.560;2022-07-29T14:30:58;4.13;;;0.90;;
28796;SDS011;24974;54.444;18.560;2022-07-29T14:33:29;2.95;;;0.90;;
28796;SDS011;24974;54.444;18.560;2022-07-29T14:36:00;0.98;;;0.70;;
28796;SDS011;24974;54.444;18.560;2022-07-29T14:38:31;1.00;;;0.70;;
28796;SDS011;24974;54.444;18.560;2022-07-29T14:41:02;3.50;;;0.88;;
28796;SDS011;24974;54.444;18.560;2022-07-29T14:43:34;0.80;;;0.65;;
28796;SDS011;24974;54.444;18.560;2022-07-29T14:46:05;0.73;;;0.70;;
28796;SDS011;24974;54.444;18.560;2022-07-29T14:48:37;3.03;;;1.00;;
28796;SDS011;24974;54.444;18.560;2022-07-29T14:51:08;3.60;;;0.73;;
28796;SDS011;24974;54.444;18.560;2022-07-29T14:53:39;3.00;;;0.70;;
28796;SDS011;24974;54.444;18.560;2022-07-29T14:56:10;6.68;;;0.85;;
28796;SDS011;24974;54.444;18.560;2022-07-29T14:58:41;3.05;;;0.80;;
28796;SDS011;24974;54.444;18.560;2022-07-29T15:01:11;0.60;;;0.60;;
28796;SDS011;24974;54.444;18.560;2022-07-29T15:03:42;1.30;;;0.90;;
28796;SDS011;24974;54.444;18.560;2022-07-29T15:06:13;1.05;;;0.80;;
28796;SDS011;24974;54.444;18.560;2022-07-29T15:08:44;3.08;;;1.52;;
28796;SDS011;24974;54.444;18.560;2022-07-29T15:11:15;7.65;;;6.53;;
28796;SDS011;24974;54.444;18.560;2022-07-29T15:13:46;3.55;;;3.13;;
28796;SDS011;24974;54.444;18.560;2022-07-29T15:16:17;3.40;;;2.00;;
28796;SDS011;24974;54.444;18.560;2022-07-29T15:18:48;1.83;;;1.20;;
28796;SDS011;24974;54.444;18.560;2022-07-29T15:21:19;3.47;;;1.55;;
28796;SDS011;24974;54.444;18.560;2022-07-29T15:23:50;2.33;;;1.50;;
28796;SDS011;24974;54.444;18.560;2022-07-29T15:26:21;0.65;;;0.60;;
28796;SDS011;24974;54.444;18.560;2022-07-29T15:28:52;5.32;;;1.80;;
28796;SDS011;24974;54.444;18.560;2022-07-29T15:31:23;1.00;;;0.90;;
28796;SDS011;24974;54.444;18.560;2022-07-29T15:33:54;1.00;;;0.80;;
28796;SDS011;24974;54.444;18.560;2022-07-29T15:36:25;4.35;;;0.80;;
28796;SDS011;24974;54.444;18.560;2022-07-29T15:38:56;0.98;;;0.70;;
28796;SDS011;24974;54.444;18.560;2022-07-29T15:41:27;2.50;;;1.00;;
28796;SDS011;24974;54.444;18.560;2022-07-29T15:43:57;3.85;;;0.95;;
28796;SDS011;24974;54.444;18.560;2022-07-29T15:46:29;2.72;;;0.82;;
28796;SDS011;24974;54.444;18.560;2022-07-29T15:49:18;2.50;;;1.00;;
28796;SDS011;24974;54.444;18.560;2022-07-29T15:51:49;1.95;;;1.30;;
28796;SDS011;24974;54.444;18.560;2022-07-29T15:54:20;1.75;;;1.20;;
28796;SDS011;24974;54.444;18.560;2022-07-29T15:56:51;1.73;;;0.80;;
28796;SDS011;24974;54.444;18.560;2022-07-29T15:59:22;1.17;;;0.80;;
28796;SDS011;24974;54.444;18.560;2022-07-29T16:01:53;1.50;;;0.65;;
28796;SDS011;24974;54.444;18.560;2022-07-29T16:04:25;1.58;;;0.80;;
28796;SDS011;24974;54.444;18.560;2022-07-29T16:06:57;5.35;;;2.80;;
28796;SDS011;24974;54.444;18.560;2022-07-29T16:09:28;3.47;;;1.40;;
28796;SDS011;24974;54.444;18.560;2022-07-29T16:11:58;1.48;;;0.88;;
28796;SDS011;24974;54.444;18.560;2022-07-29T16:14:29;6.85;;;1.05;;
28796;SDS011;24974;54.444;18.560;2022-07-29T16:17:00;1.98;;;1.30;;
28796;SDS011;24974;54.444;18.560;2022-07-29T16:19:32;2.90;;;0.80;;
28796;SDS011;24974;54.444;18.560;2022-07-29T16:22:03;3.03;;;0.80;;
28796;SDS011;24974;54.444;18.560;2022-07-29T16:24:35;2.15;;;0.85;;
28796;SDS011;24974;54.444;18.560;2022-07-29T16:27:05;1.83;;;0.80;;
28796;SDS011;24974;54.444;18.560;2022-07-29T16:29:36;1.90;;;1.00;;
28796;SDS011;24974;54.444;18.560;2022-07-29T16:32:07;2.92;;;0.90;;
28796;SDS011;24974;54.444;18.560;2022-07-29T16:34:38;4.30;;;1.73;;
28796;SDS011;24974;54.444;18.560;2022-07-29T16:37:10;4.25;;;2.65;;
28796;SDS011;24974;54.444;18.560;2022-07-29T16:39:41;3.13;;;1.33;;
28796;SDS011;24974;54.444;18.560;2022-07-29T16:42:12;2.60;;;0.80;;
28796;SDS011;24974;54.444;18.560;2022-07-29T16:44:43;0.80;;;0.80;;
28796;SDS011;24974;54.444;18.560;2022-07-29T16:47:14;4.47;;;0.80;;
28796;SDS011;24974;54.444;18.560;2022-07-29T16:49:45;1.98;;;0.77;;
28796;SDS011;24974;54.444;18.560;2022-07-29T16:52:16;1.38;;;0.80;;
28796;SDS011;24974;54.444;18.560;2022-07-29T16:54:47;4.13;;;0.90;;
28796;SDS011;24974;54.444;18.560;2022-07-29T16:57:18;1.65;;;0.85;;
28796;SDS011;24974;54.444;18.560;2022-07-29T16:59:50;2.72;;;1.00;;
28796;SDS011;24974;54.444;18.560;2022-07-29T17:02:21;5.25;;;1.05;;
28796;SDS011;24974;54.444;18.560;2022-07-29T17:04:52;3.45;;;1.00;;
28796;SDS011;24974;54.444;18.560;2022-07-29T17:07:22;2.63;;;0.80;;
28796;SDS011;24974;54.444;18.560;2022-07-29T17:09:53;1.60;;;0.93;;
28796;SDS011;24974;54.444;18.560;2022-07-29T17:12:25;5.88;;;0.93;;
28796;SDS011;24974;54.444;18.560;2022-07-29T17:14:56;2.65;;;1.75;;
28796;SDS011;24974;54.444;18.560;2022-07-29T17:17:27;1.10;;;1.00;;
28796;SDS011;24974;54.444;18.560;2022-07-29T17:19:58;1.88;;;1.40;;
28796;SDS011;24974;54.444;18.560;2022-07-29T17:22:29;5.07;;;0.95;;
28796;SDS011;24974;54.444;18.560;2022-07-29T17:25:00;4.47;;;0.90;;
28796;SDS011;24974;54.444;18.560;2022-07-29T17:27:31;6.25;;;1.30;;
28796;SDS011;24974;54.444;18.560;2022-07-29T17:30:03;1.58;;;1.10;;
28796;SDS011;24974;54.444;18.560;2022-07-29T17:32:35;3.72;;;0.95;;
28796;SDS011;24974;54.444;18.560;2022-07-29T17:35:08;4.10;;;0.80;;
28796;SDS011;24974;54.444;18.560;2022-07-29T17:37:58;1.67;;;0.85;;
28796;SDS011;24974;54.444;18.560;2022-07-29T17:40:29;2.45;;;0.88;;
28796;SDS011;24974;54.444;18.560;2022-07-29T17:43:00;1.75;;;0.85;;
28796;SDS011;24974;54.444;18.560;2022-07-29T17:45:30;2.28;;;0.90;;
28796;SDS011;24974;54.444;18.560;2022-07-29T17:48:01;2.25;;;0.90;;
28796;SDS011;24974;54.444;18.560;2022-07-29T17:50:32;2.28;;;0.90;;
28796;SDS011;24974;54.444;18.560;2022-07-29T17:53:03;1.20;;;0.88;;
28796;SDS011;24974;54.444;18.560;2022-07-29T17:55:34;1.73;;;1.00;;
28796;SDS011;24974;54.444;18.560;2022-07-29T17:58:05;3.80;;;0.70;;
28796;SDS011;24974;54.444;18.560;2022-07-29T18:00:38;1.83;;;0.85;;
28796;SDS011;24974;54.444;18.560;2022-07-29T18:03:09;1.98;;;1.00;;
28796;SDS011;24974;54.444;18.560;2022-07-29T18:05:40;1.90;;;0.80;;
28796;SDS011;24974;54.444;18.560;2022-07-29T18:08:11;3.55;;;1.00;;
28796;SDS011;24974;54.444;18.560;2022-07-29T18:10:42;6.43;;;1.25;;
28796;SDS011;24974;54.444;18.560;2022-07-29T18:13:13;0.80;;;0.77;;
28796;SDS011;24974;54.444;18.560;2022-07-29T18:15:47;2.65;;;1.13;;
28796;SDS011;24974;54.444;18.560;2022-07-29T18:18:18;2.53;;;1.40;;
28796;SDS011;24974;54.444;18.560;2022-07-29T18:20:49;4.00;;;1.30;;
28796;SDS011;24974;54.444;18.560;2022-07-29T18:23:20;9.20;;;4.28;;
28796;SDS011;24974;54.444;18.560;2022-07-29T18:25:51;4.72;;;2.33;;
28796;SDS011;24974;54.444;18.560;2022-07-29T18:28:22;2.47;;;1.17;;
28796;SDS011;24974;54.444;18.560;2022-07-29T18:30:53;2.70;;;0.98;;
28796;SDS011;24974;54.444;18.560;2022-07-29T18:33:23;2.78;;;0.93;;
28796;SDS011;24974;54.444;18.560;2022-07-29T18:35:54;1.17;;;0.80;;
28796;SDS011;24974;54.444;18.560;2022-07-29T18:38:25;1.20;;;0.80;;
28796;SDS011;24974;54.444;18.560;2022-07-29T18:40:56;2.28;;;1.10;;
28796;SDS011;24974;54.444;18.560;2022-07-29T18:43:27;1.42;;;1.23;;
28796;SDS011;24974;54.444;18.560;2022-07-29T18:45:58;2.53;;;1.15;;
28796;SDS011;24974;54.444;18.560;2022-07-29T18:48:30;3.08;;;1.85;;
28796;SDS011;24974;54.444;18.560;2022-07-29T18:51:02;4.18;;;1.98;;
28796;SDS011;24974;54.444;18.560;2022-07-29T18:53:33;3.90;;;1.30;;
28796;SDS011;24974;54.444;18.560;2022-07-29T18:56:04;1.75;;;0.98;;
28796;SDS011;24974;54.444;18.560;2022-07-29T18:58:35;4.05;;;1.08;;
28796;SDS011;24974;54.444;18.560;2022-07-29T19:01:08;2.88;;;1.27;;
28796;SDS011;24974;54.444;18.560;2022-07-29T19:03:39;2.70;;;1.17;;
28796;SDS011;24974;54.444;18.560;2022-07-29T19:06:09;4.72;;;1.10;;
28796;SDS011;24974;54.444;18.560;2022-07-29T19:08:40;4.38;;;1.20;;
28796;SDS011;24974;54.444;18.560;2022-07-29T19:11:11;3.13;;;1.00;;
28796;SDS011;24974;54.444;18.560;2022-07-29T19:13:42;2.35;;;1.08;;
28796;SDS011;24974;54.444;18.560;2022-07-29T19:16:13;1.85;;;1.00;;
28796;SDS011;24974;54.444;18.560;2022-07-29T19:18:44;1.52;;;1.10;;
28796;SDS011;24974;54.444;18.560;2022-07-29T19:21:16;1.92;;;1.13;;
28796;SDS011;24974;54.444;18.560;2022-07-29T19:23:47;4.97;;;1.20;;
28796;SDS011;24974;54.444;18.560;2022-07-29T19:26:18;1.92;;;1.00;;
